Time;durP1;ratioP1;P1;durP2;ratioP2;P2;SDS_P1;SDS_P2;PMS_P1;PMS_P2;Temp;Humidity;BMP_temperature;BMP_pressure;BME280_temperature;BME280_humidity;BME280_pressure;Samples;Min_cycle;Max_cycle;Signal;HPM_P1;HPM_P2
2023/01/24 00:02:20;;;;;;;18.73;8.52;;;;;;;;;;5030003;28;20385;-71
2023/01/24 00:04:46;;;;;;;14.88;7.75;;;;;;;;;;5025865;28;20195;-71
2023/01/24 00:07:12;;;;;;;15.75;7.00;;;;;;;;;;5026432;28;20041;-71
2023/01/24 00:09:37;;;;;;;15.90;7.63;;;;;;;;;;5024061;28;20029;-71
2023/01/24 00:12:03;;;;;;;11.00;6.63;;;;;;;;;;5028747;28;20030;-71
2023/01/24 00:14:28;;;;;;;15.60;6.65;;;;;;;;;;5023422;28;20033;-72
2023/01/24 00:16:53;;;;;;;16.23;7.82;;;;;;;;;;5030911;28;20045;-73
2023/01/24 00:19:19;;;;;;;14.00;7.60;;;;;;;;;;5015400;28;20397;-72
2023/01/24 00:21:44;;;;;;;18.35;7.65;;;;;;;;;;5019690;28;20041;-71
2023/01/24 00:24:09;;;;;;;16.35;8.13;;;;;;;;;;5020279;28;20112;-71
2023/01/24 00:26:35;;;;;;;18.20;7.55;;;;;;;;;;5029365;28;20040;-71
2023/01/24 00:29:00;;;;;;;18.45;6.50;;;;;;;;;;5018565;28;20033;-72
2023/01/24 00:31:26;;;;;;;14.57;6.95;;;;;;;;;;5024212;28;20034;-71
2023/01/24 00:33:51;;;;;;;11.52;5.93;;;;;;;;;;5021742;28;20110;-71
2023/01/24 00:36:16;;;;;;;17.95;7.35;;;;;;;;;;5029485;28;20124;-71
2023/01/24 00:38:42;;;;;;;11.65;5.88;;;;;;;;;;5026903;28;20457;-70
2023/01/24 00:41:07;;;;;;;12.95;6.53;;;;;;;;;;5018556;28;20044;-70
2023/01/24 00:43:33;;;;;;;12.43;6.40;;;;;;;;;;5015603;28;20113;-71
2023/01/24 00:45:58;;;;;;;11.80;6.03;;;;;;;;;;5010868;28;20123;-71
2023/01/24 00:48:24;;;;;;;12.27;6.18;;;;;;;;;;5023630;28;20067;-71
2023/01/24 00:50:49;;;;;;;13.82;6.50;;;;;;;;;;5041583;28;20077;-71
2023/01/24 00:53:15;;;;;;;17.38;7.90;;;;;;;;;;5017395;28;20052;-71
2023/01/24 00:55:45;;;;;;;14.10;7.47;;;;;;;;;;5030009;28;20025;-72
2023/01/24 00:58:10;;;;;;;14.50;6.15;;;;;;;;;;5022390;28;20034;-71
2023/01/24 01:00:38;;;;;;;10.50;5.82;;;;;;;;;;5014879;28;20362;-71
2023/01/24 01:03:09;;;;;;;20.42;6.13;;;;;;;;;;5026541;28;20029;-71
2023/01/24 01:05:34;;;;;;;13.00;7.05;;;;;;;;;;5023048;28;20088;-71
2023/01/24 01:08:00;;;;;;;17.38;6.65;;;;;;;;;;5026027;28;20052;-71
2023/01/24 01:10:25;;;;;;;11.88;6.18;;;;;;;;;;5021673;28;20072;-73
2023/01/24 01:12:50;;;;;;;19.17;6.25;;;;;;;;;;5022831;28;20088;-71
2023/01/24 01:15:16;;;;;;;10.85;6.03;;;;;;;;;;5016550;28;20057;-70
2023/01/24 01:17:41;;;;;;;11.70;6.28;;;;;;;;;;5025653;28;20079;-71
2023/01/24 01:20:07;;;;;;;15.13;6.45;;;;;;;;;;5024748;28;20468;-70
2023/01/24 01:22:32;;;;;;;17.85;6.47;;;;;;;;;;5022882;28;20087;-71
2023/01/24 01:24:58;;;;;;;16.38;6.28;;;;;;;;;;5024635;28;20037;-71
2023/01/24 01:27:23;;;;;;;13.95;5.45;;;;;;;;;;5027949;28;20492;-73
2023/01/24 01:29:49;;;;;;;16.65;6.55;;;;;;;;;;5020726;28;20046;-72
2023/01/24 01:32:14;;;;;;;13.35;5.82;;;;;;;;;;5029247;28;20029;-71
2023/01/24 01:34:40;;;;;;;12.18;6.22;;;;;;;;;;5031306;28;20518;-71
2023/01/24 01:37:05;;;;;;;16.25;6.80;;;;;;;;;;5028706;28;20033;-71
2023/01/24 01:39:30;;;;;;;11.40;6.25;;;;;;;;;;5018187;28;20041;-71
2023/01/24 01:41:56;;;;;;;14.07;5.05;;;;;;;;;;5020417;28;20044;-70
2023/01/24 01:44:38;;;;;;;16.15;6.85;;;;;;;;;;5018990;28;20037;-72
2023/01/24 01:47:30;;;;;;;12.25;5.72;;;;;;;;;;5015998;28;20386;-70
2023/01/24 01:50:32;;;;;;;11.38;5.32;;;;;;;;;;5031941;28;20034;-71
2023/01/24 01:52:58;;;;;;;9.43;4.70;;;;;;;;;;5029447;28;20410;-70
2023/01/24 01:55:26;;;;;;;9.80;5.88;;;;;;;;;;5024814;28;20117;-71
2023/01/24 01:57:52;;;;;;;13.20;5.28;;;;;;;;;;5026952;28;20493;-71
2023/01/24 02:00:24;;;;;;;14.13;5.95;;;;;;;;;;5025551;28;20086;-71
2023/01/24 02:02:53;;;;;;;9.10;5.70;;;;;;;;;;5018703;28;20037;-70
2023/01/24 02:05:20;;;;;;;11.45;5.30;;;;;;;;;;5018924;28;20026;-71
2023/01/24 02:07:59;;;;;;;12.63;6.07;;;;;;;;;;5028946;28;20382;-70
2023/01/24 02:11:37;;;;;;;17.55;6.65;;;;;;;;;;5022401;28;20497;-70
2023/01/24 02:13:10;;;;;;;17.40;5.55;;;;;;;;;;5018235;28;20129;-70
2023/01/24 02:18:19;;;;;;;10.05;5.47;;;;;;;;;;5020974;28;20044;-70
2023/01/24 02:20:46;;;;;;;9.63;5.25;;;;;;;;;;5026191;28;20124;-71
2023/01/24 02:23:11;;;;;;;14.23;6.30;;;;;;;;;;5023561;28;20064;-70
2023/01/24 02:25:46;;;;;;;23.65;6.70;;;;;;;;;;5026582;28;20029;-70
2023/01/24 02:28:11;;;;;;;10.93;5.65;;;;;;;;;;5030492;28;20030;-70
2023/01/24 02:30:37;;;;;;;12.20;6.28;;;;;;;;;;5030561;28;20397;-70
2023/01/24 02:33:29;;;;;;;17.85;6.18;;;;;;;;;;5030413;28;20037;-70
2023/01/24 02:36:12;;;;;;;11.32;5.93;;;;;;;;;;5013813;28;20121;-70
2023/01/24 02:38:39;;;;;;;13.67;6.63;;;;;;;;;;5010783;28;20117;-70
2023/01/24 02:41:07;;;;;;;10.35;5.53;;;;;;;;;;5031400;28;20359;-70
2023/01/24 02:43:36;;;;;;;8.90;5.07;;;;;;;;;;5020694;28;20029;-70
2023/01/24 02:46:02;;;;;;;6.18;3.85;;;;;;;;;;5030541;28;20465;-70
2023/01/24 02:48:27;;;;;;;21.00;6.57;;;;;;;;;;5023249;28;20041;-70
2023/01/24 02:53:39;;;;;;;7.80;4.55;;;;;;;;;;5017602;28;20044;-70
2023/01/24 02:58:51;;;;;;;8.20;4.88;;;;;;;;;;5014793;28;20121;-70
2023/01/24 03:01:18;;;;;;;12.63;6.78;;;;;;;;;;5021140;28;20116;-70
2023/01/24 03:03:44;;;;;;;10.60;5.70;;;;;;;;;;5015901;28;20029;-69
2023/01/24 03:06:10;;;;;;;12.73;6.70;;;;;;;;;;5021179;28;20244;-69
2023/01/24 03:08:36;;;;;;;11.02;5.90;;;;;;;;;;5032664;28;20090;-70
2023/01/24 03:11:03;;;;;;;12.23;6.40;;;;;;;;;;5026049;28;20539;-70
2023/01/24 03:35:21;;;;;;;;;;;;;;;;;;5014512;28;20049;-72
2023/01/24 03:40:30;;;;;;;12.55;4.20;;;;;;;;;;5023425;28;20421;-70
2023/01/24 03:42:56;;;;;;;10.07;5.95;;;;;;;;;;5017806;28;20049;-70
2023/01/24 03:45:27;;;;;;;9.48;4.70;;;;;;;;;;5029224;28;20363;-70
2023/01/24 03:47:58;;;;;;;9.57;3.90;;;;;;;;;;5025397;28;20469;-70
2023/01/24 03:53:17;;;;;;;10.55;3.97;;;;;;;;;;5017352;28;20041;-69
2023/01/24 03:55:43;;;;;;;8.52;4.57;;;;;;;;;;5027955;28;20080;-70
2023/01/24 03:58:09;;;;;;;12.23;6.05;;;;;;;;;;5021152;28;20022;-69
2023/01/24 04:00:35;;;;;;;10.35;5.05;;;;;;;;;;5010122;28;20064;-70
2023/01/24 04:03:01;;;;;;;12.63;5.65;;;;;;;;;;5020388;28;20038;-71
2023/01/24 04:05:27;;;;;;;8.25;4.60;;;;;;;;;;5016720;28;20026;-72
2023/01/24 04:07:53;;;;;;;7.43;4.38;;;;;;;;;;5027660;28;20492;-70
2023/01/24 04:10:19;;;;;;;7.97;4.45;;;;;;;;;;5024244;28;20034;-71
2023/01/24 04:12:44;;;;;;;14.05;5.97;;;;;;;;;;5017643;28;20100;-71
2023/01/24 04:15:15;;;;;;;10.55;5.15;;;;;;;;;;5016793;28;20034;-71
2023/01/24 04:17:41;;;;;;;8.23;4.57;;;;;;;;;;5015094;28;20061;-73
2023/01/24 04:20:06;;;;;;;7.63;5.00;;;;;;;;;;5021447;28;20080;-70
2023/01/24 04:22:32;;;;;;;7.43;4.50;;;;;;;;;;5016577;28;20033;-70
2023/01/24 04:24:57;;;;;;;7.72;4.15;;;;;;;;;;5014553;28;20092;-70
2023/01/24 04:27:22;;;;;;;6.75;4.25;;;;;;;;;;5019743;28;20393;-71
2023/01/24 04:29:48;;;;;;;9.27;5.88;;;;;;;;;;5023732;28;20029;-71
2023/01/24 04:32:13;;;;;;;6.63;3.88;;;;;;;;;;5028790;28;20046;-71
2023/01/24 04:34:39;;;;;;;7.43;4.40;;;;;;;;;;5024914;28;20037;-70
2023/01/24 04:37:04;;;;;;;7.90;4.20;;;;;;;;;;5023496;28;20029;-70
2023/01/24 04:39:30;;;;;;;8.88;4.03;;;;;;;;;;5014938;28;20045;-70
2023/01/24 04:41:55;;;;;;;10.07;4.78;;;;;;;;;;5025690;28;20022;-69
2023/01/24 04:44:21;;;;;;;7.65;4.65;;;;;;;;;;5026239;28;20048;-70
2023/01/24 04:46:46;;;;;;;12.02;4.38;;;;;;;;;;5021290;28;20123;-70
2023/01/24 04:49:11;;;;;;;14.77;5.03;;;;;;;;;;5023467;28;20064;-70
2023/01/24 04:51:37;;;;;;;9.38;4.75;;;;;;;;;;5022655;28;20177;-70
2023/01/24 04:54:02;;;;;;;9.90;5.03;;;;;;;;;;5025688;28;20037;-71
2023/01/24 04:56:27;;;;;;;7.13;3.17;;;;;;;;;;5031113;28;20060;-71
2023/01/24 04:58:53;;;;;;;7.50;3.42;;;;;;;;;;5022184;28;20042;-70
2023/01/24 05:01:18;;;;;;;7.10;4.38;;;;;;;;;;5014930;28;20044;-70
2023/01/24 05:03:44;;;;;;;7.22;3.90;;;;;;;;;;5016054;28;20041;-71
2023/01/24 05:06:09;;;;;;;10.05;3.88;;;;;;;;;;5015833;28;20540;-70
2023/01/24 05:08:34;;;;;;;7.03;4.03;;;;;;;;;;5017488;28;20034;-71
2023/01/24 05:11:01;;;;;;;8.35;5.18;;;;;;;;;;5024401;28;20417;-70
2023/01/24 05:13:27;;;;;;;11.60;3.92;;;;;;;;;;5017799;28;20057;-71
2023/01/24 05:15:52;;;;;;;13.45;4.45;;;;;;;;;;5022505;28;20123;-70
2023/01/24 05:18:19;;;;;;;13.65;4.97;;;;;;;;;;5018116;28;20539;-71
2023/01/24 05:20:45;;;;;;;10.57;4.60;;;;;;;;;;5019356;28;20034;-71
2023/01/24 05:23:10;;;;;;;9.57;4.85;;;;;;;;;;5014508;28;20128;-70
2023/01/24 05:25:35;;;;;;;7.57;4.95;;;;;;;;;;5015359;28;20030;-71
2023/01/24 05:28:01;;;;;;;14.43;5.00;;;;;;;;;;5014490;28;20061;-70
2023/01/24 05:30:26;;;;;;;7.55;4.78;;;;;;;;;;5020990;28;20038;-70
2023/01/24 05:32:58;;;;;;;16.30;4.97;;;;;;;;;;5026277;28;20381;-70
2023/01/24 05:35:23;;;;;;;7.88;4.72;;;;;;;;;;5021412;28;20056;-71
2023/01/24 05:37:49;;;;;;;7.82;4.57;;;;;;;;;;5025733;28;20466;-73
2023/01/24 05:40:15;;;;;;;5.95;4.07;;;;;;;;;;5028685;28;20030;-71
2023/01/24 05:42:42;;;;;;;10.45;4.15;;;;;;;;;;5027072;28;20418;-69
2023/01/24 05:45:08;;;;;;;11.00;4.72;;;;;;;;;;5019460;28;20105;-70
2023/01/24 05:47:34;;;;;;;13.68;5.28;;;;;;;;;;5024260;28;20033;-70
2023/01/24 05:49:59;;;;;;;7.60;4.50;;;;;;;;;;5021347;28;20052;-71
2023/01/24 05:52:25;;;;;;;6.53;4.10;;;;;;;;;;5020618;28;20116;-74
2023/01/24 05:54:51;;;;;;;7.28;4.85;;;;;;;;;;5012982;28;20030;-71
2023/01/24 05:57:16;;;;;;;5.97;4.10;;;;;;;;;;5020181;28;20450;-71
2023/01/24 05:59:41;;;;;;;9.52;4.57;;;;;;;;;;5012621;28;20037;-71
2023/01/24 06:02:07;;;;;;;14.20;5.47;;;;;;;;;;5029323;28;20098;-71
2023/01/24 06:04:32;;;;;;;6.65;4.35;;;;;;;;;;5015584;28;20039;-71
2023/01/24 06:06:58;;;;;;;8.45;4.88;;;;;;;;;;5026099;28;20092;-71
2023/01/24 06:09:23;;;;;;;9.50;4.00;;;;;;;;;;5026035;28;20049;-71
2023/01/24 06:11:49;;;;;;;10.27;4.30;;;;;;;;;;5018716;28;20037;-71
2023/01/24 06:14:14;;;;;;;7.15;4.20;;;;;;;;;;5014663;28;20076;-71
2023/01/24 06:16:40;;;;;;;8.63;4.13;;;;;;;;;;5023995;28;20033;-71
2023/01/24 06:19:05;;;;;;;7.25;4.13;;;;;;;;;;5019302;28;20052;-71
2023/01/24 06:21:44;;;;;;;7.10;4.63;;;;;;;;;;5032621;28;20038;-71
2023/01/24 06:24:30;;;;;;;8.45;5.07;;;;;;;;;;5020113;28;20122;-71
2023/01/24 06:26:56;;;;;;;8.48;4.57;;;;;;;;;;5019426;28;20497;-73
2023/01/24 06:29:21;;;;;;;8.32;4.22;;;;;;;;;;5017943;28;20034;-71
2023/01/24 06:31:59;;;;;;;6.97;3.50;;;;;;;;;;5017141;28;20049;-71
2023/01/24 06:34:43;;;;;;;6.85;3.63;;;;;;;;;;5020058;28;20046;-71
2023/01/24 06:37:12;;;;;;;11.90;3.45;;;;;;;;;;5027687;28;20041;-70
2023/01/24 06:39:39;;;;;;;7.38;4.35;;;;;;;;;;5027624;28;20042;-70
2023/01/24 06:42:04;;;;;;;7.57;3.53;;;;;;;;;;5023740;28;20038;-71
2023/01/24 06:44:30;;;;;;;6.63;3.35;;;;;;;;;;5027757;28;20120;-71
2023/01/24 06:46:55;;;;;;;5.57;3.13;;;;;;;;;;5031448;28;20037;-71
2023/01/24 06:49:21;;;;;;;9.23;4.03;;;;;;;;;;5028868;28;20038;-71
2023/01/24 06:51:50;;;;;;;6.15;3.63;;;;;;;;;;5021937;28;20052;-70
2023/01/24 06:54:16;;;;;;;5.57;3.63;;;;;;;;;;5026850;28;20038;-70
2023/01/24 06:56:41;;;;;;;6.53;3.00;;;;;;;;;;5025327;28;20048;-70
2023/01/24 06:59:06;;;;;;;10.80;4.20;;;;;;;;;;5024228;28;20084;-71
2023/01/24 07:01:32;;;;;;;10.93;4.85;;;;;;;;;;5028398;28;20418;-71
2023/01/24 07:03:57;;;;;;;7.22;3.67;;;;;;;;;;5022807;28;20088;-70
2023/01/24 07:06:23;;;;;;;17.15;4.47;;;;;;;;;;5019831;28;20470;-71
2023/01/24 07:08:49;;;;;;;7.78;3.80;;;;;;;;;;5017992;28;20038;-70
2023/01/24 07:11:14;;;;;;;7.32;3.63;;;;;;;;;;5030608;28;20559;-72
2023/01/24 07:13:39;;;;;;;6.72;4.25;;;;;;;;;;5024019;28;20032;-72
2023/01/24 07:16:05;;;;;;;8.02;3.50;;;;;;;;;;5031018;28;20041;-71
2023/01/24 07:18:31;;;;;;;7.65;4.32;;;;;;;;;;5028234;28;20060;-71
2023/01/24 07:20:57;;;;;;;9.27;3.95;;;;;;;;;;5015549;28;20053;-71
2023/01/24 07:23:24;;;;;;;7.65;3.50;;;;;;;;;;5018379;28;20080;-71
2023/01/24 07:25:53;;;;;;;9.20;4.10;;;;;;;;;;5023179;28;20123;-71
2023/01/24 07:28:18;;;;;;;10.57;3.38;;;;;;;;;;5024274;28;20030;-70
2023/01/24 07:30:47;;;;;;;7.22;4.07;;;;;;;;;;5023396;28;20121;-74
2023/01/24 07:33:13;;;;;;;7.47;4.22;;;;;;;;;;5005098;28;20367;-72
2023/01/24 07:35:39;;;;;;;7.00;3.60;;;;;;;;;;5025747;28;20045;-72
2023/01/24 07:38:05;;;;;;;10.02;3.67;;;;;;;;;;5018852;28;20033;-71
2023/01/24 07:40:31;;;;;;;9.48;4.68;;;;;;;;;;5007135;28;20096;-72
2023/01/24 07:43:00;;;;;;;9.07;3.83;;;;;;;;;;5020404;28;20083;-71
2023/01/24 07:45:25;;;;;;;6.75;3.85;;;;;;;;;;5022032;28;20036;-72
2023/01/24 07:47:55;;;;;;;7.32;4.20;;;;;;;;;;5023886;28;20034;-72
2023/01/24 07:50:21;;;;;;;7.05;3.15;;;;;;;;;;5037620;28;20112;-72
2023/01/24 07:52:50;;;;;;;6.05;3.47;;;;;;;;;;5024847;28;20132;-72
2023/01/24 07:55:16;;;;;;;7.53;3.90;;;;;;;;;;5017964;28;20030;-71
2023/01/24 07:57:41;;;;;;;4.95;3.08;;;;;;;;;;5028802;28;20041;-71
2023/01/24 08:00:07;;;;;;;11.15;3.95;;;;;;;;;;5031033;28;20087;-71
2023/01/24 08:02:33;;;;;;;7.55;4.18;;;;;;;;;;5019361;28;20131;-72
2023/01/24 08:04:58;;;;;;;5.28;3.53;;;;;;;;;;5031099;28;20105;-71
2023/01/24 08:07:23;;;;;;;5.40;3.17;;;;;;;;;;5018244;28;20045;-72
2023/01/24 08:09:49;;;;;;;5.80;3.78;;;;;;;;;;5020115;28;20434;-73
2023/01/24 08:12:15;;;;;;;7.90;4.15;;;;;;;;;;5026838;28;20030;-71
2023/01/24 08:14:40;;;;;;;5.25;3.65;;;;;;;;;;5020263;28;20041;-72
2023/01/24 08:17:06;;;;;;;6.28;3.95;;;;;;;;;;5027904;28;20045;-71
2023/01/24 08:19:32;;;;;;;8.93;4.22;;;;;;;;;;5018719;28;20029;-72
2023/01/24 08:21:57;;;;;;;7.63;3.55;;;;;;;;;;5020080;28;20406;-72
2023/01/24 08:24:23;;;;;;;6.93;3.55;;;;;;;;;;5027985;28;20049;-72
2023/01/24 08:26:48;;;;;;;7.70;3.65;;;;;;;;;;5032167;28;20445;-72
2023/01/24 08:29:15;;;;;;;7.18;4.40;;;;;;;;;;5027886;28;20041;-72
2023/01/24 08:31:40;;;;;;;7.45;3.90;;;;;;;;;;5033022;28;20053;-72
2023/01/24 08:34:06;;;;;;;11.35;3.85;;;;;;;;;;5017660;28;20049;-73
2023/01/24 08:36:31;;;;;;;8.30;4.50;;;;;;;;;;5002849;28;20049;-73
2023/01/24 08:38:57;;;;;;;6.00;3.55;;;;;;;;;;5023666;28;20091;-74
2023/01/24 08:41:22;;;;;;;8.00;3.85;;;;;;;;;;5021768;28;20030;-73
2023/01/24 08:43:47;;;;;;;8.52;3.63;;;;;;;;;;5003051;28;20045;-77
2023/01/24 08:46:13;;;;;;;6.55;4.45;;;;;;;;;;5008067;28;20560;-72
2023/01/24 08:48:38;;;;;;;4.80;2.90;;;;;;;;;;5016695;28;20079;-74
2023/01/24 08:51:05;;;;;;;13.52;4.15;;;;;;;;;;5011790;28;20053;-72
2023/01/24 08:53:30;;;;;;;5.90;4.05;;;;;;;;;;5022895;28;20094;-73
2023/01/24 08:55:55;;;;;;;8.85;4.15;;;;;;;;;;5014419;28;20026;-74
2023/01/24 08:58:21;;;;;;;7.65;4.38;;;;;;;;;;5018172;28;20033;-73
2023/01/24 09:00:47;;;;;;;7.53;4.22;;;;;;;;;;5018594;28;20037;-73
2023/01/24 09:03:15;;;;;;;9.82;4.72;;;;;;;;;;5034898;28;20040;-73
2023/01/24 09:05:41;;;;;;;8.15;4.30;;;;;;;;;;5013730;28;20052;-73
2023/01/24 09:08:06;;;;;;;9.73;4.57;;;;;;;;;;5011725;28;20144;-74
2023/01/24 09:10:31;;;;;;;13.00;5.30;;;;;;;;;;5019923;28;20037;-71
2023/01/24 09:12:57;;;;;;;9.45;4.88;;;;;;;;;;5022061;28;20038;-72
2023/01/24 09:15:23;;;;;;;9.30;5.18;;;;;;;;;;5011893;28;20045;-74
2023/01/24 09:17:48;;;;;;;10.35;4.78;;;;;;;;;;5013592;28;20029;-74
2023/01/24 09:20:14;;;;;;;10.48;4.90;;;;;;;;;;5013647;28;20056;-74
2023/01/24 09:22:40;;;;;;;10.15;4.78;;;;;;;;;;5024192;28;20497;-75
2023/01/24 09:25:07;;;;;;;9.15;4.60;;;;;;;;;;5016157;28;20030;-75
2023/01/24 09:27:33;;;;;;;10.38;5.07;;;;;;;;;;5018139;28;20405;-71
2023/01/24 09:29:59;;;;;;;12.55;7.20;;;;;;;;;;5017782;28;20042;-71
2023/01/24 09:32:24;;;;;;;13.45;5.43;;;;;;;;;;5027853;28;20060;-74
2023/01/24 09:34:49;;;;;;;12.32;5.55;;;;;;;;;;5021794;28;20037;-73
2023/01/24 09:37:21;;;;;;;8.20;4.93;;;;;;;;;;5022301;28;20478;-71
2023/01/24 09:39:47;;;;;;;12.05;5.22;;;;;;;;;;5014677;28;20111;-71
2023/01/24 09:42:28;;;;;;;7.85;4.80;;;;;;;;;;5001189;28;20490;-71
2023/01/24 09:45:15;;;;;;;12.90;5.50;;;;;;;;;;5019779;28;20120;-72
2023/01/24 09:47:55;;;;;;;13.98;5.90;;;;;;;;;;5016910;28;20046;-72
2023/01/24 09:50:25;;;;;;;11.95;6.32;;;;;;;;;;5019500;28;20548;-71
2023/01/24 09:52:55;;;;;;;11.20;5.90;;;;;;;;;;5010916;28;20406;-72
2023/01/24 09:55:26;;;;;;;10.48;5.80;;;;;;;;;;5026137;28;20049;-71
2023/01/24 09:57:54;;;;;;;15.48;7.82;;;;;;;;;;5017752;28;20033;-75
2023/01/24 10:00:26;;;;;;;17.88;9.00;;;;;;;;;;5013670;28;20104;-78
2023/01/24 10:02:54;;;;;;;25.40;11.25;;;;;;;;;;5018748;28;20041;-74
2023/01/24 10:05:19;;;;;;;22.88;10.82;;;;;;;;;;5023136;28;20045;-74
2023/01/24 10:07:45;;;;;;;17.95;9.85;;;;;;;;;;5025028;28;20033;-77
2023/01/24 10:10:26;;;;;;;21.58;9.05;;;;;;;;;;5023953;28;20091;-74
2023/01/24 10:13:20;;;;;;;12.82;7.60;;;;;;;;;;5022469;28;20037;-74
2023/01/24 10:16:01;;;;;;;16.13;8.68;;;;;;;;;;5015650;28;20132;-73
2023/01/24 10:18:36;;;;;;;9.93;5.30;;;;;;;;;;5022764;28;20582;-75
2023/01/24 10:21:19;;;;;;;9.57;5.38;;;;;;;;;;5021553;28;20045;-73
2023/01/24 10:23:50;;;;;;;13.10;6.28;;;;;;;;;;5016229;28;20081;-73
2023/01/24 10:26:21;;;;;;;15.85;7.93;;;;;;;;;;5016635;28;20096;-74
2023/01/24 10:28:50;;;;;;;20.00;9.95;;;;;;;;;;5011548;28;20054;-75
2023/01/24 10:31:36;;;;;;;21.33;9.85;;;;;;;;;;5016843;28;20049;-74
2023/01/24 10:34:18;;;;;;;17.27;8.40;;;;;;;;;;5006540;28;20038;-73
2023/01/24 10:36:43;;;;;;;19.25;9.00;;;;;;;;;;5025782;28;20051;-75
2023/01/24 10:39:12;;;;;;;15.05;8.48;;;;;;;;;;5025142;28;20393;-74
2023/01/24 10:41:37;;;;;;;15.98;8.98;;;;;;;;;;5025545;28;20363;-79
2023/01/24 10:44:37;;;;;;;14.52;8.23;;;;;;;;;;5025380;28;20108;-73
2023/01/24 10:47:24;;;;;;;15.38;7.72;;;;;;;;;;5009056;28;20053;-74
2023/01/24 10:50:05;;;;;;;14.18;6.32;;;;;;;;;;5023160;28;20131;-76
2023/01/24 10:52:33;;;;;;;17.17;7.65;;;;;;;;;;5005569;28;20056;-76
2023/01/24 10:55:01;;;;;;;15.85;8.13;;;;;;;;;;5011723;28;20430;-73
2023/01/24 10:57:39;;;;;;;16.27;7.72;;;;;;;;;;5003256;28;20375;-73
2023/01/24 11:00:14;;;;;;;14.98;8.90;;;;;;;;;;5019402;28;20042;-73
2023/01/24 11:02:40;;;;;;;16.25;7.95;;;;;;;;;;5017897;28;20045;-74
2023/01/24 11:05:06;;;;;;;17.80;8.52;;;;;;;;;;5024263;28;20045;-74
2023/01/24 11:07:38;;;;;;;15.27;8.43;;;;;;;;;;4997574;28;20398;-74
2023/01/24 11:10:25;;;;;;;16.63;8.48;;;;;;;;;;5020825;28;20021;-74
2023/01/24 11:12:59;;;;;;;15.63;8.38;;;;;;;;;;5021341;28;20495;-74
2023/01/24 11:15:27;;;;;;;18.65;8.32;;;;;;;;;;5016025;28;20045;-73
2023/01/24 11:17:55;;;;;;;14.20;8.43;;;;;;;;;;5022830;28;20048;-74
2023/01/24 11:20:31;;;;;;;15.10;8.48;;;;;;;;;;5016614;28;20382;-75
2023/01/24 11:23:04;;;;;;;16.77;8.32;;;;;;;;;;5013706;28;20064;-76
2023/01/24 11:25:30;;;;;;;21.48;8.85;;;;;;;;;;5017733;28;20041;-74
2023/01/24 11:27:55;;;;;;;16.20;7.95;;;;;;;;;;5013994;28;20041;-73
2023/01/24 11:30:22;;;;;;;16.73;8.68;;;;;;;;;;5018163;28;20540;-75
2023/01/24 11:33:12;;;;;;;15.93;9.10;;;;;;;;;;5012885;28;20036;-73
2023/01/24 11:35:46;;;;;;;16.15;9.48;;;;;;;;;;5022488;28;20045;-74
2023/01/24 11:38:23;;;;;;;18.38;9.75;;;;;;;;;;5022121;28;20026;-78
2023/01/24 11:41:08;;;;;;;24.50;13.32;;;;;;;;;;5002540;28;20061;-74
2023/01/24 11:43:58;;;;;;;28.50;11.02;;;;;;;;;;5015357;28;20034;-73
2023/01/24 11:46:49;;;;;;;23.33;12.65;;;;;;;;;;4996103;28;20036;-74
2023/01/24 11:49:43;;;;;;;25.40;13.82;;;;;;;;;;5007202;28;20034;-74
2023/01/24 11:52:20;;;;;;;24.33;13.32;;;;;;;;;;5024814;28;20054;-73
2023/01/24 11:55:04;;;;;;;26.83;14.23;;;;;;;;;;5014627;28;20034;-74
2023/01/24 11:57:39;;;;;;;20.43;12.43;;;;;;;;;;5025480;28;20038;-74
2023/01/24 12:00:16;;;;;;;20.90;11.93;;;;;;;;;;5021200;28;20033;-75
2023/01/24 12:03:10;;;;;;;24.67;11.95;;;;;;;;;;5022760;28;20046;-76
2023/01/24 12:06:10;;;;;;;24.20;10.98;;;;;;;;;;5019177;28;20086;-74
2023/01/24 12:08:44;;;;;;;21.60;12.02;;;;;;;;;;5023210;28;20046;-74
2023/01/24 12:11:09;;;;;;;;;;;;;;;;;;5018490;28;20529;-73
2023/01/24 12:13:48;;;;;;;23.73;12.02;;;;;;;;;;5020347;28;19916;-74
2023/01/24 12:16:58;;;;;;;15.45;9.77;;;;;;;;;;5001894;28;20046;-74
2023/01/24 12:19:29;;;;;;;17.60;10.43;;;;;;;;;;5006275;28;20072;-74
2023/01/24 12:21:57;;;;;;;20.95;12.27;;;;;;;;;;5015795;28;20500;-74
2023/01/24 12:24:27;;;;;;;18.45;10.57;;;;;;;;;;5017728;28;20069;-75
2023/01/24 12:26:59;;;;;;;16.55;9.95;;;;;;;;;;5023049;28;20036;-75
2023/01/24 12:29:29;;;;;;;27.55;10.15;;;;;;;;;;5017214;28;20113;-75
2023/01/24 12:32:21;;;;;;;16.20;9.32;;;;;;;;;;5042669;28;20032;-74
2023/01/24 12:35:00;;;;;;;20.08;9.93;;;;;;;;;;5011662;28;20053;-74
2023/01/24 12:38:10;;;;;;;18.27;9.52;;;;;;;;;;5011801;28;20055;-76
2023/01/24 12:40:56;;;;;;;16.75;8.82;;;;;;;;;;5004523;28;21079;-76
2023/01/24 12:43:45;;;;;;;18.20;9.13;;;;;;;;;;5008858;28;20032;-74
2023/01/24 12:46:21;;;;;;;21.23;10.30;;;;;;;;;;5017168;28;20033;-74
2023/01/24 12:49:04;;;;;;;16.25;8.55;;;;;;;;;;5024048;28;20037;-74
2023/01/24 12:51:35;;;;;;;15.98;8.95;;;;;;;;;;5010991;28;20053;-74
2023/01/24 12:54:14;;;;;;;17.63;8.95;;;;;;;;;;5011167;28;20091;-75
2023/01/24 12:56:42;;;;;;;13.70;7.75;;;;;;;;;;5009756;28;20064;-74
2023/01/24 12:59:09;;;;;;;16.15;8.70;;;;;;;;;;5015414;28;20044;-74
2023/01/24 13:01:46;;;;;;;20.35;8.55;;;;;;;;;;5011559;28;20033;-74
2023/01/24 13:04:44;;;;;;;21.33;12.23;;;;;;;;;;5014721;28;20115;-74
2023/01/24 13:07:28;;;;;;;14.52;7.93;;;;;;;;;;5024705;28;20080;-74
2023/01/24 13:10:12;;;;;;;15.15;8.48;;;;;;;;;;5015037;28;20065;-74
2023/01/24 13:12:37;;;;;;;14.60;7.53;;;;;;;;;;5011492;28;20095;-74
2023/01/24 13:15:16;;;;;;;14.60;7.68;;;;;;;;;;4997798;28;20049;-74
2023/01/24 13:18:00;;;;;;;18.48;9.52;;;;;;;;;;5021096;28;20490;-74
2023/01/24 13:21:07;;;;;;;17.30;10.75;;;;;;;;;;5026082;28;20042;-74
2023/01/24 13:23:38;;;;;;;19.13;9.95;;;;;;;;;;5012597;28;20050;-74
2023/01/24 13:26:22;;;;;;;15.13;9.05;;;;;;;;;;5022671;28;20103;-73
2023/01/24 13:28:54;;;;;;;22.10;10.82;;;;;;;;;;5017389;28;20038;-74
2023/01/24 13:31:55;;;;;;;20.55;10.90;;;;;;;;;;5026519;28;20678;-75
2023/01/24 13:34:26;;;;;;;19.20;11.23;;;;;;;;;;5023630;28;20061;-74
2023/01/24 13:36:51;;;;;;;23.92;11.90;;;;;;;;;;4999305;28;20034;-74
2023/01/24 13:39:42;;;;;;;17.13;10.15;;;;;;;;;;5020406;28;20601;-74
2023/01/24 13:42:22;;;;;;;20.70;10.70;;;;;;;;;;5027074;28;20124;-74
2023/01/24 13:44:48;;;;;;;21.95;11.07;;;;;;;;;;5037223;28;20033;-74
2023/01/24 13:47:15;;;;;;;19.73;10.05;;;;;;;;;;5024591;28;20486;-74
2023/01/24 13:49:49;;;;;;;18.67;9.90;;;;;;;;;;5011725;28;20085;-74
2023/01/24 13:52:36;;;;;;;23.30;11.30;;;;;;;;;;5018494;28;20048;-73
2023/01/24 13:55:07;;;;;;;20.48;11.27;;;;;;;;;;5021220;28;20040;-74
2023/01/24 13:57:35;;;;;;;22.38;11.73;;;;;;;;;;5007897;28;20038;-74
2023/01/24 14:00:09;;;;;;;17.10;8.93;;;;;;;;;;5011638;28;20048;-76
2023/01/24 14:02:47;;;;;;;18.38;10.43;;;;;;;;;;5016052;28;20029;-74
2023/01/24 14:05:28;;;;;;;18.48;10.13;;;;;;;;;;5013202;28;20052;-73
2023/01/24 14:08:25;;;;;;;25.00;10.30;;;;;;;;;;5020572;28;20076;-79
2023/01/24 14:11:14;;;;;;;19.33;11.45;;;;;;;;;;5029287;28;20061;-73
2023/01/24 14:13:49;;;;;;;21.35;11.05;;;;;;;;;;5025171;28;20464;-73
2023/01/24 14:16:24;;;;;;;22.13;10.02;;;;;;;;;;5009830;28;20038;-74
2023/01/24 14:19:16;;;;;;;18.45;10.88;;;;;;;;;;5017573;28;20052;-73
2023/01/24 14:22:00;;;;;;;22.25;11.60;;;;;;;;;;5009176;28;20034;-73
2023/01/24 14:24:28;;;;;;;19.20;11.60;;;;;;;;;;5019939;28;20038;-75
2023/01/24 14:27:19;;;;;;;23.30;10.38;;;;;;;;;;5023743;28;20041;-75
2023/01/24 14:29:46;;;;;;;16.27;10.00;;;;;;;;;;5005991;28;20734;-74
2023/01/24 14:32:18;;;;;;;16.38;9.88;;;;;;;;;;5021233;28;20034;-78
2023/01/24 14:34:47;;;;;;;18.60;9.75;;;;;;;;;;5010341;28;20092;-80
2023/01/24 14:37:13;;;;;;;18.45;9.02;;;;;;;;;;5018023;28;20045;-74
2023/01/24 14:39:38;;;;;;;20.08;10.38;;;;;;;;;;5016201;28;20037;-73
2023/01/24 14:42:06;;;;;;;20.63;11.65;;;;;;;;;;5017766;28;20030;-74
2023/01/24 14:44:33;;;;;;;16.88;9.25;;;;;;;;;;5017934;28;20037;-74
2023/01/24 14:47:00;;;;;;;19.40;10.75;;;;;;;;;;5023091;28;20116;-74
2023/01/24 14:49:34;;;;;;;17.55;10.10;;;;;;;;;;5023142;28;20370;-79
2023/01/24 14:52:00;;;;;;;14.95;6.45;;;;;;;;;;5003065;28;20389;-74
2023/01/24 14:54:26;;;;;;;16.58;9.00;;;;;;;;;;5015668;28;20033;-75
2023/01/24 14:56:51;;;;;;;13.93;8.02;;;;;;;;;;5013859;28;20065;-73
2023/01/24 14:59:18;;;;;;;18.60;8.23;;;;;;;;;;5012999;28;20423;-74
2023/01/24 15:01:48;;;;;;;19.05;8.00;;;;;;;;;;5015778;28;20432;-74
2023/01/24 15:04:27;;;;;;;14.50;7.63;;;;;;;;;;4997294;28;20438;-74
2023/01/24 15:07:10;;;;;;;14.40;8.13;;;;;;;;;;5014994;28;20052;-74
2023/01/24 15:09:37;;;;;;;13.73;7.72;;;;;;;;;;5007129;28;20046;-75
2023/01/24 15:12:12;;;;;;;16.50;8.38;;;;;;;;;;5014556;28;20142;-74
2023/01/24 15:14:39;;;;;;;14.18;8.13;;;;;;;;;;5013056;28;20490;-73
2023/01/24 15:17:19;;;;;;;19.70;8.70;;;;;;;;;;5012678;28;20046;-73
2023/01/24 15:19:46;;;;;;;18.08;8.35;;;;;;;;;;5013947;28;20526;-73
2023/01/24 15:22:19;;;;;;;15.75;8.05;;;;;;;;;;5021044;28;20037;-73
2023/01/24 15:24:50;;;;;;;15.27;8.70;;;;;;;;;;5018688;28;20041;-73
2023/01/24 15:27:21;;;;;;;16.17;7.65;;;;;;;;;;5016174;28;20290;-73
2023/01/24 15:29:48;;;;;;;15.57;7.93;;;;;;;;;;5030696;28;20042;-73